Time,TemperatureF,DewpointF,PressureIn,WindDirection,WindDirectionDegrees,WindSpeedMPH,WindSpeedGustMPH,Humidity,HourlyPrecipIn,Conditions,Clouds,dailyrainin,SoftwareType,DateUTC
2013-08-09 00:00:00,73.1,72.2,29.96,East,91,0.0,0.0,97,0.00,,---,0.00,VWS V14.01,2013-08-09 04:00:00,
2013-08-09 00:01:00,73.1,72.2,29.96,East,91,0.0,0.0,97,0.00,,---,0.00,VWS V14.01,2013-08-09 04:01:00,
2013-08-09 00:06:00,73.2,72.3,29.95,East,91,0.0,0.0,97,0.00,,---,0.00,VWS V14.01,2013-08-09 04:06:00,
2013-08-09 00:10:00,73.1,72.2,29.95,East,91,2.0,2.0,97,0.00,,---,0.00,VWS V14.01,2013-08-09 04:10:00,
2013-08-09 00:11:00,73.0,72.1,29.95,East,91,2.0,2.0,97,0.00,,---,0.00,VWS V14.01,2013-08-09 04:11:00,
2013-08-09 00:16:00,72.8,71.9,29.95,East,91,0.0,2.0,97,0.00,,---,0.00,VWS V14.01,2013-08-09 04:16:00,
2013-08-09 00:20:00,72.7,71.8,29.95,East,92,0.0,2.0,97,0.00,,---,0.00,VWS V14.01,2013-08-09 04:20:00,
2013-08-09 00:21:00,72.6,71.7,29.95,East,91,0.0,0.0,97,0.00,,---,0.00,VWS V14.01,2013-08-09 04:21:00,
2013-08-09 00:26:00,72.7,71.8,29.94,East,82,0.0,1.0,97,0.00,,---,0.00,VWS V14.01,2013-08-09 04:26:00,
2013-08-09 00:30:00,72.6,71.7,29.94,East,82,0.0,1.0,97,0.00,,---,0.00,VWS V14.01,2013-08-09 04:30:00,
2013-08-09 00:31:00,72.6,71.7,29.94,East,82,0.0,0.0,97,0.00,,---,0.00,VWS V14.01,2013-08-09 04:31:00,
2013-08-09 00:36:00,72.7,72.1,29.94,NNE,27,0.0,1.0,98,0.00,,---,0.00,VWS V14.01,2013-08-09 04:36:00,
2013-08-09 00:40:00,72.7,71.8,29.94,NNE,27,0.0,1.0,97,0.00,,---,0.00,VWS V14.01,2013-08-09 04:40:00,
2013-08-09 00:41:00,72.7,71.8,29.94,NNE,27,0.0,0.0,97,0.00,,---,0.00,VWS V14.01,2013-08-09 04:41:00,
2013-08-09 00:46:00,72.7,71.8,29.95,NE,43,0.0,1.0,97,0.00,,---,0.00,VWS V14.01,2013-08-09 04:46:00,
2013-08-09 00:50:00,72.6,71.7,29.94,NE,43,0.0,1.0,97,0.00,,---,0.00,VWS V14.01,2013-08-09 04:50:00,
2013-08-09 00:51:00,72.6,71.7,29.94,NE,43,0.0,0.0,97,0.00,,---,0.00,VWS V14.01,2013-08-09 04:51:00,
2013-08-09 00:56:00,72.4,71.5,29.95,NE,42,0.0,0.0,97,0.00,,---,0.00,VWS V14.01,2013-08-09 04:56:00,
2013-08-09 01:00:00,72.4,71.5,29.95,NE,41,0.0,0.0,97,0.00,,---,0.00,VWS V14.01,2013-08-09 05:00:00,
2013-08-09 01:01:00,72.3,71.4,29.95,NE,41,0.0,0.0,97,0.00,,---,0.00,VWS V14.01,2013-08-09 05:01:00,
2013-08-09 01:06:00,72.3,71.7,29.95,NE,41,0.0,0.0,98,0.00,,---,0.00,VWS V14.01,2013-08-09 05:06:00,
2013-08-09 01:10:00,72.4,71.8,29.94,NE,41,0.0,0.0,98,0.00,,---,0.00,VWS V14.01,2013-08-09 05:10:00,
2013-08-09 01:12:00,72.4,71.8,29.94,NE,42,0.0,0.0,98,0.00,,---,0.00,VWS V14.01,2013-08-09 05:12:00,
2013-08-09 01:17:00,72.4,71.8,29.94,NE,41,0.0,0.0,98,0.00,,---,0.00,VWS V14.01,2013-08-09 05:17:00,
2013-08-09 01:20:00,72.4,71.8,29.94,NE,41,0.0,0.0,98,0.00,,---,0.00,VWS V14.01,2013-08-09 05:20:00,
2013-08-09 01:22:00,72.4,71.8,29.94,NE,41,0.0,0.0,98,0.00,,---,0.00,VWS V14.01,2013-08-09 05:22:00,
2013-08-09 01:27:00,72.2,71.3,29.94,NNE,29,0.0,1.0,97,0.00,,---,0.00,VWS V14.01,2013-08-09 05:27:00,
2013-08-09 01:30:00,72.2,71.6,29.94,NW,325,0.0,1.0,98,0.00,,---,0.00,VWS V14.01,2013-08-09 05:30:00,
2013-08-09 01:32:00,72.2,71.6,29.94,West,271,0.0,3.0,98,0.00,,---,0.00,VWS V14.01,2013-08-09 05:32:00,
2013-08-09 01:37:00,72.2,71.6,29.94,WSW,246,1.0,3.0,98,0.00,,---,0.00,VWS V14.01,2013-08-09 05:37:00,
2013-08-09 01:40:00,72.3,71.7,29.94,West,270,0.0,3.0,98,0.00,,---,0.00,VWS V14.01,2013-08-09 05:40:00,
2013-08-09 01:42:00,72.4,71.8,29.94,WSW,248,2.0,3.0,98,0.00,,---,0.00,VWS V14.01,2013-08-09 05:42:00,
2013-08-09 01:47:00,72.9,72.0,29.94,SW,231,1.0,3.0,97,0.00,,---,0.00,VWS V14.01,2013-08-09 05:47:00,
2013-08-09 01:50:00,73.1,72.2,29.94,WSW,255,1.0,3.0,97,0.00,,---,0.00,VWS V14.01,2013-08-09 05:50:00,
2013-08-09 01:52:00,73.3,72.1,29.94,SW,217,0.0,2.0,96,0.00,,---,0.00,VWS V14.01,2013-08-09 05:52:00,
2013-08-09 01:57:00,73.6,72.1,29.93,SSW,210,0.0,4.0,95,0.00,,---,0.00,VWS V14.01,2013-08-09 05:57:00,
2013-08-09 02:00:00,73.7,72.2,29.93,WSW,243,1.0,4.0,95,0.00,,---,0.00,VWS V14.01,2013-08-09 06:00:00,
2013-08-09 02:02:00,73.8,72.3,29.93,SW,231,0.0,1.0,95,0.00,,---,0.00,VWS V14.01,2013-08-09 06:02:00,
2013-08-09 02:07:00,73.9,72.4,29.93,WSW,238,1.0,3.0,95,0.00,,---,0.00,VWS V14.01,2013-08-09 06:07:00,
2013-08-09 02:10:00,74.0,72.2,29.93,SW,226,1.0,3.0,94,0.00,,---,0.00,VWS V14.01,2013-08-09 06:10:00,
2013-08-09 02:12:00,74.2,72.4,29.93,WSW,247,1.0,2.0,94,0.00,,---,0.00,VWS V14.01,2013-08-09 06:12:00,
2013-08-09 02:17:00,74.4,72.6,29.93,SW,221,0.0,3.0,94,0.00,,---,0.00,VWS V14.01,2013-08-09 06:17:00,
2013-08-09 02:20:00,74.5,72.7,29.93,SW,235,0.0,3.0,94,0.00,,---,0.00,VWS V14.01,2013-08-09 06:20:00,
2013-08-09 02:22:00,74.6,72.4,29.93,West,260,2.0,2.0,93,0.00,,---,0.00,VWS V14.01,2013-08-09 06:22:00,
2013-08-09 02:27:00,74.8,72.6,29.93,West,260,2.0,4.0,93,0.00,,---,0.00,VWS V14.01,2013-08-09 06:27:00,
2013-08-09 02:30:00,74.9,72.7,29.93,WSW,252,0.0,4.0,93,0.00,,---,0.00,VWS V14.01,2013-08-09 06:30:00,
2013-08-09 02:32:00,74.9,72.7,29.93,WSW,246,0.0,5.0,93,0.00,,---,0.00,VWS V14.01,2013-08-09 06:32:00,
2013-08-09 02:37:00,75.1,72.9,29.93,WSW,257,0.0,5.0,93,0.00,,---,0.00,VWS V14.01,2013-08-09 06:37:00,
2013-08-09 02:40:00,75.1,72.9,29.93,West,281,1.0,5.0,93,0.00,,---,0.00,VWS V14.01,2013-08-09 06:40:00,
2013-08-09 02:42:00,75.1,72.9,29.93,WSW,238,0.0,1.0,93,0.00,,---,0.00,VWS V14.01,2013-08-09 06:42:00,
2013-08-09 02:47:00,75.1,72.9,29.93,West,262,2.0,4.0,93,0.00,,---,0.00,VWS V14.01,2013-08-09 06:47:00,
2013-08-09 02:50:00,75.1,72.9,29.93,SW,228,4.0,5.0,93,0.00,,---,0.00,VWS V14.01,2013-08-09 06:50:00,
2013-08-09 02:52:00,75.1,72.9,29.93,WSW,251,1.0,4.0,93,0.00,,---,0.00,VWS V14.01,2013-08-09 06:52:00,
2013-08-09 02:57:00,75.2,72.7,29.93,WSW,243,1.0,5.0,92,0.00,,---,0.00,VWS V14.01,2013-08-09 06:57:00,
2013-08-09 03:00:00,75.2,72.7,29.92,WSW,238,4.0,5.0,92,0.00,,---,0.00,VWS V14.01,2013-08-09 07:00:00,
2013-08-09 03:02:00,75.3,72.8,29.92,SW,233,0.0,4.0,92,0.00,,---,0.00,VWS V14.01,2013-08-09 07:02:00,
2013-08-09 03:07:00,75.3,72.8,29.92,WSW,252,1.0,5.0,92,0.00,,---,0.00,VWS V14.01,2013-08-09 07:07:00,
2013-08-09 03:10:00,75.3,72.8,29.92,WSW,243,2.0,5.0,92,0.00,,---,0.00,VWS V14.01,2013-08-09 07:10:00,
2013-08-09 03:12:00,75.4,72.9,29.92,SSW,208,1.0,4.0,92,0.00,,---,0.00,VWS V14.01,2013-08-09 07:12:00,
2013-08-09 03:17:00,75.3,72.8,29.92,West,259,2.0,4.0,92,0.00,,---,0.00,VWS V14.01,2013-08-09 07:17:00,
2013-08-09 03:20:00,75.3,72.8,29.92,West,262,1.0,4.0,92,0.00,,---,0.00,VWS V14.01,2013-08-09 07:20:00,
2013-08-09 03:22:00,75.3,72.8,29.92,West,275,0.0,2.0,92,0.00,,---,0.00,VWS V14.01,2013-08-09 07:22:00,
2013-08-09 03:27:00,75.0,72.5,29.92,WSW,250,1.0,2.0,92,0.00,,---,0.00,VWS V14.01,2013-08-09 07:27:00,
2013-08-09 03:30:00,74.8,72.6,29.92,West,262,0.0,3.0,93,0.00,,---,0.00,VWS V14.01,2013-08-09 07:30:00,
2013-08-09 03:32:00,74.8,72.6,29.92,SW,228,0.0,3.0,93,0.00,,---,0.00,VWS V14.01,2013-08-09 07:32:00,
2013-08-09 03:37:00,74.7,72.6,29.92,WSW,242,1.0,4.0,93,0.00,,---,0.00,VWS V14.01,2013-08-09 07:37:00,
2013-08-09 03:40:00,74.7,72.5,29.92,SW,226,2.0,4.0,93,0.00,,---,0.00,VWS V14.01,2013-08-09 07:40:00,
2013-08-09 03:42:00,74.7,72.6,29.92,WSW,250,1.0,2.0,93,0.00,,---,0.00,VWS V14.01,2013-08-09 07:42:00,
2013-08-09 03:47:00,74.6,72.4,29.92,SW,226,0.0,4.0,93,0.00,,---,0.00,VWS V14.01,2013-08-09 07:47:00,
2013-08-09 03:50:00,74.7,72.5,29.92,SW,229,1.0,4.0,93,0.00,,---,0.00,VWS V14.01,2013-08-09 07:50:00,
2013-08-09 03:52:00,74.7,72.6,29.92,SW,229,2.0,4.0,93,0.00,,---,0.00,VWS V14.01,2013-08-09 07:52:00,
2013-08-09 03:57:00,74.7,72.6,29.92,SSW,211,3.0,4.0,93,0.00,,---,0.00,VWS V14.01,2013-08-09 07:57:00,
2013-08-09 04:00:00,74.8,72.6,29.92,SW,235,3.0,4.0,93,0.00,,---,0.00,VWS V14.01,2013-08-09 08:00:00,
2013-08-09 04:02:00,74.8,72.6,29.92,SW,218,2.0,6.0,93,0.00,,---,0.00,VWS V14.01,2013-08-09 08:02:00,
2013-08-09 04:07:00,74.9,72.7,29.92,SW,235,0.0,6.0,93,0.00,,---,0.00,VWS V14.01,2013-08-09 08:07:00,
2013-08-09 04:10:00,74.9,72.7,29.92,WSW,249,1.0,6.0,93,0.00,,---,0.00,VWS V14.01,2013-08-09 08:10:00,
2013-08-09 04:12:00,74.9,72.7,29.92,SW,218,0.0,5.0,93,0.00,,---,0.00,VWS V14.01,2013-08-09 08:12:00,
2013-08-09 04:17:00,74.9,72.7,29.92,West,269,2.0,5.0,93,0.00,,---,0.00,VWS V14.01,2013-08-09 08:17:00,
2013-08-09 04:20:00,75.0,72.8,29.92,SW,215,5.0,6.0,93,0.00,,---,0.00,VWS V14.01,2013-08-09 08:20:00,
2013-08-09 04:22:00,75.0,72.8,29.92,WSW,252,0.0,5.0,93,0.00,,---,0.00,VWS V14.01,2013-08-09 08:22:00,
2013-08-09 04:27:00,75.1,72.6,29.92,SW,232,4.0,6.0,92,0.00,,---,0.00,VWS V14.01,2013-08-09 08:27:00,
2013-08-09 04:30:00,75.2,72.7,29.92,SW,226,2.0,6.0,92,0.00,,---,0.00,VWS V14.01,2013-08-09 08:30:00,
2013-08-09 04:32:00,75.3,72.8,29.92,WSW,245,7.0,9.0,92,0.00,,---,0.00,VWS V14.01,2013-08-09 08:32:00,
2013-08-09 04:37:00,75.4,72.9,29.92,WSW,240,2.0,9.0,92,0.00,,---,0.00,VWS V14.01,2013-08-09 08:37:00,
2013-08-09 04:40:00,75.5,73.0,29.92,SW,215,3.0,9.0,92,0.00,,---,0.00,VWS V14.01,2013-08-09 08:40:00,
2013-08-09 04:42:00,75.6,72.8,29.92,West,263,2.0,7.0,91,0.00,,---,0.00,VWS V14.01,2013-08-09 08:42:00,
2013-08-09 04:47:00,75.7,72.9,29.92,SW,232,3.0,7.0,91,0.00,,---,0.00,VWS V14.01,2013-08-09 08:47:00,
2013-08-09 04:50:00,75.7,72.9,29.92,WNW,283,1.0,7.0,91,0.00,,---,0.00,VWS V14.01,2013-08-09 08:50:00,
2013-08-09 04:52:00,75.7,72.9,29.92,West,263,2.0,6.0,91,0.00,,---,0.00,VWS V14.01,2013-08-09 08:52:00,
2013-08-09 04:57:00,75.7,72.9,29.92,WSW,252,1.0,6.0,91,0.00,,---,0.00,VWS V14.01,2013-08-09 08:57:00,
2013-08-09 05:00:00,75.7,72.9,29.92,WSW,245,1.0,6.0,91,0.00,,---,0.00,VWS V14.01,2013-08-09 09:00:00,
2013-08-09 05:02:00,75.6,72.8,29.92,West,259,0.0,3.0,91,0.00,,---,0.00,VWS V14.01,2013-08-09 09:02:00,
2013-08-09 05:07:00,75.5,73.0,29.92,WNW,284,3.0,5.0,92,0.00,,---,0.00,VWS V14.01,2013-08-09 09:07:00,
2013-08-09 05:10:00,75.5,73.0,29.92,WSW,255,2.0,5.0,92,0.00,,---,0.00,VWS V14.01,2013-08-09 09:10:00,
2013-08-09 05:12:00,75.4,72.9,29.92,WNW,282,3.0,4.0,92,0.00,,---,0.00,VWS V14.01,2013-08-09 09:12:00,
2013-08-09 05:17:00,75.3,72.8,29.92,SSW,212,6.0,6.0,92,0.00,,---,0.00,VWS V14.01,2013-08-09 09:17:00,
2013-08-09 05:20:00,75.3,72.8,29.92,WSW,245,3.0,6.0,92,0.00,,---,0.00,VWS V14.01,2013-08-09 09:20:00,
2013-08-09 05:22:00,75.1,72.6,29.91,SW,228,2.0,4.0,92,0.00,,---,0.00,VWS V14.01,2013-08-09 09:22:00,
2013-08-09 05:27:00,75.1,72.6,29.91,SW,221,1.0,6.0,92,0.00,,---,0.00,VWS V14.01,2013-08-09 09:27:00,
2013-08-09 05:30:00,75.1,72.6,29.91,West,274,2.0,6.0,92,0.00,,---,0.00,VWS V14.01,2013-08-09 09:30:00,
2013-08-09 05:32:00,75.0,72.8,29.91,WSW,256,0.0,3.0,93,0.00,,---,0.00,VWS V14.01,2013-08-09 09:32:00,
2013-08-09 05:37:00,74.9,72.7,29.92,West,271,1.0,3.0,93,0.00,,---,0.00,VWS V14.01,2013-08-09 09:37:00,
2013-08-09 05:40:00,74.8,72.6,29.92,West,280,0.0,3.0,93,0.00,,---,0.00,VWS V14.01,2013-08-09 09:40:00,
2013-08-09 05:42:00,74.8,72.6,29.92,WNW,291,0.0,1.0,93,0.00,,---,0.00,VWS V14.01,2013-08-09 09:42:00,
2013-08-09 05:47:00,74.6,72.4,29.92,WNW,284,1.0,2.0,93,0.00,,---,0.00,VWS V14.01,2013-08-09 09:47:00,
2013-08-09 05:50:00,74.5,72.3,29.92,WNW,284,0.0,2.0,93,0.00,,---,0.00,VWS V14.01,2013-08-09 09:50:00,
2013-08-09 05:52:00,74.4,72.6,29.92,WNW,285,0.0,1.0,94,0.00,,---,0.00,VWS V14.01,2013-08-09 09:52:00,
2013-08-09 05:57:00,74.1,72.3,29.92,West,270,0.0,1.0,94,0.00,,---,0.00,VWS V14.01,2013-08-09 09:57:00,
2013-08-09 06:00:00,74.1,72.3,29.92,WSW,239,0.0,1.0,94,0.00,,---,0.00,VWS V14.01,2013-08-09 10:00:00,
2013-08-09 06:02:00,73.9,72.1,29.92,West,278,1.0,1.0,94,0.00,,---,0.00,VWS V14.01,2013-08-09 10:02:00,
2013-08-09 06:07:00,73.6,72.1,29.92,West,269,0.0,1.0,95,0.00,,---,0.00,VWS V14.01,2013-08-09 10:07:00,
2013-08-09 06:10:00,73.5,72.0,29.92,WNW,283,0.0,1.0,95,0.00,,---,0.00,VWS V14.01,2013-08-09 10:10:00,
2013-08-09 06:12:00,73.4,71.9,29.92,West,276,0.0,1.0,95,0.00,,---,0.00,VWS V14.01,2013-08-09 10:12:00,
2013-08-09 06:17:00,73.2,71.7,29.92,West,281,1.0,2.0,95,0.00,,---,0.00,VWS V14.01,2013-08-09 10:17:00,
2013-08-09 06:20:00,73.2,72.0,29.92,West,278,0.0,2.0,96,0.00,,---,0.00,VWS V14.01,2013-08-09 10:20:00,
2013-08-09 06:22:00,73.1,71.9,29.92,West,280,1.0,1.0,96,0.00,,---,0.00,VWS V14.01,2013-08-09 10:22:00,
2013-08-09 06:27:00,73.0,71.8,29.92,West,278,0.0,1.0,96,0.00,,---,0.00,VWS V14.01,2013-08-09 10:27:00,
2013-08-09 06:30:00,73.0,71.8,29.92,WNW,283,0.0,1.0,96,0.00,,---,0.00,VWS V14.01,2013-08-09 10:30:00,
2013-08-09 06:32:00,73.0,71.8,29.92,West,281,1.0,1.0,96,0.00,,---,0.00,VWS V14.01,2013-08-09 10:32:00,
2013-08-09 06:37:00,72.9,71.7,29.92,West,280,0.0,1.0,96,0.00,,---,0.00,VWS V14.01,2013-08-09 10:37:00,
2013-08-09 06:40:00,72.9,71.7,29.92,West,278,0.0,1.0,96,0.00,,---,0.00,VWS V14.01,2013-08-09 10:40:00,
2013-08-09 06:42:00,72.9,71.7,29.92,West,278,0.0,0.0,96,0.00,,---,0.00,VWS V14.01,2013-08-09 10:42:00,
2013-08-09 06:48:00,72.9,72.0,29.92,West,278,0.0,1.0,97,0.00,,---,0.00,VWS V14.01,2013-08-09 10:48:00,
2013-08-09 06:50:00,72.9,72.0,29.92,WSW,245,0.0,2.0,97,0.00,,---,0.00,VWS V14.01,2013-08-09 10:50:00,
2013-08-09 06:53:00,72.9,72.0,29.92,WSW,248,0.0,1.0,97,0.00,,---,0.00,VWS V14.01,2013-08-09 10:53:00,
2013-08-09 06:58:00,73.0,72.1,29.92,West,278,0.0,1.0,97,0.00,,---,0.00,VWS V14.01,2013-08-09 10:58:00,
2013-08-09 07:00:00,73.0,72.1,29.92,West,278,0.0,1.0,97,0.00,,---,0.00,VWS V14.01,2013-08-09 11:00:00,
2013-08-09 07:03:00,73.1,72.2,29.92,West,266,1.0,3.0,97,0.00,,---,0.00,VWS V14.01,2013-08-09 11:03:00,
2013-08-09 07:08:00,73.2,72.3,29.92,WSW,255,0.0,3.0,97,0.00,,---,0.00,VWS V14.01,2013-08-09 11:08:00,
2013-08-09 07:10:00,73.2,72.3,29.92,West,276,0.0,3.0,97,0.00,,---,0.00,VWS V14.01,2013-08-09 11:10:00,
2013-08-09 07:13:00,73.3,72.4,29.92,West,274,1.0,3.0,97,0.00,,---,0.00,VWS V14.01,2013-08-09 11:13:00,
2013-08-09 07:18:00,73.7,72.5,29.92,WNW,293,1.0,5.0,96,0.00,,---,0.00,VWS V14.01,2013-08-09 11:18:00,
2013-08-09 07:20:00,73.7,72.5,29.92,West,277,0.0,5.0,96,0.00,,---,0.00,VWS V14.01,2013-08-09 11:20:00,
2013-08-09 07:23:00,74.0,72.8,29.92,WSW,257,3.0,3.0,96,0.00,,---,0.00,VWS V14.01,2013-08-09 11:23:00,
2013-08-09 07:28:00,74.3,72.8,29.92,SW,214,5.0,7.0,95,0.00,,---,0.00,VWS V14.01,2013-08-09 11:28:00,
2013-08-09 07:30:00,74.4,72.9,29.92,West,259,1.0,7.0,95,0.00,,---,0.00,VWS V14.01,2013-08-09 11:30:00,
2013-08-09 07:33:00,74.8,73.3,29.92,SSW,205,6.0,6.0,95,0.00,,---,0.00,VWS V14.01,2013-08-09 11:33:00,
2013-08-09 07:38:00,75.1,73.3,29.92,West,270,2.0,6.0,94,0.00,,---,0.00,VWS V14.01,2013-08-09 11:38:00,
2013-08-09 07:40:00,75.2,73.4,29.92,SW,232,2.0,6.0,94,0.00,,---,0.00,VWS V14.01,2013-08-09 11:40:00,
2013-08-09 07:43:00,75.4,73.2,29.92,WSW,257,3.0,6.0,93,0.00,,---,0.00,VWS V14.01,2013-08-09 11:43:00,
2013-08-09 07:48:00,75.8,73.6,29.92,WNW,287,3.0,6.0,93,0.00,,---,0.00,VWS V14.01,2013-08-09 11:48:00,
2013-08-09 07:50:00,75.8,73.6,29.92,WNW,291,2.0,6.0,93,0.00,,---,0.00,VWS V14.01,2013-08-09 11:50:00,
2013-08-09 07:53:00,76.0,73.5,29.92,WSW,238,2.0,7.0,92,0.00,,---,0.00,VWS V14.01,2013-08-09 11:53:00,
2013-08-09 07:58:00,76.3,73.8,29.92,WSW,240,4.0,7.0,92,0.00,,---,0.00,VWS V14.01,2013-08-09 11:58:00,
2013-08-09 08:00:00,76.4,73.9,29.92,WSW,245,2.0,7.0,92,0.00,,---,0.00,VWS V14.01,2013-08-09 12:00:00,
2013-08-09 08:03:00,76.7,73.9,29.92,West,281,6.0,7.0,91,0.00,,---,0.00,VWS V14.01,2013-08-09 12:03:00,
2013-08-09 08:08:00,76.8,73.7,29.92,WSW,238,2.0,8.0,90,0.00,,---,0.00,VWS V14.01,2013-08-09 12:08:00,
2013-08-09 08:10:00,76.9,74.1,29.92,West,269,4.0,8.0,91,0.00,,---,0.00,VWS V14.01,2013-08-09 12:10:00,
2013-08-09 08:13:00,77.0,74.2,29.92,SSW,208,2.0,5.0,91,0.00,,---,0.00,VWS V14.01,2013-08-09 12:13:00,
2013-08-09 08:18:00,77.0,73.8,29.92,WNW,286,4.0,7.0,90,0.00,,---,0.00,VWS V14.01,2013-08-09 12:18:00,
2013-08-09 08:20:00,76.9,73.8,29.92,WSW,253,2.0,7.0,90,0.00,,---,0.00,VWS V14.01,2013-08-09 12:20:00,
2013-08-09 08:23:00,76.9,73.8,29.92,West,281,2.0,6.0,90,0.00,,---,0.00,VWS V14.01,2013-08-09 12:23:00,
2013-08-09 08:28:00,76.7,73.6,29.92,WNW,288,4.0,7.0,90,0.00,,---,0.00,VWS V14.01,2013-08-09 12:28:00,
2013-08-09 08:30:00,76.7,73.9,29.92,West,276,4.0,7.0,91,0.00,,---,0.00,VWS V14.01,2013-08-09 12:30:00,
2013-08-09 08:33:00,76.7,73.9,29.92,West,274,2.0,6.0,91,0.00,,---,0.00,VWS V14.01,2013-08-09 12:33:00,
2013-08-09 08:38:00,77.0,74.2,29.92,WSW,248,4.0,7.0,91,0.00,,---,0.00,VWS V14.01,2013-08-09 12:38:00,
2013-08-09 08:40:00,77.1,74.3,29.91,WSW,255,6.0,7.0,91,0.00,,---,0.00,VWS V14.01,2013-08-09 12:40:00,
2013-08-09 08:43:00,77.4,74.2,29.92,West,259,3.0,6.0,90,0.00,,---,0.00,VWS V14.01,2013-08-09 12:43:00,
2013-08-09 08:48:00,77.4,74.2,29.91,WSW,252,4.0,8.0,90,0.00,,---,0.00,VWS V14.01,2013-08-09 12:48:00,
2013-08-09 08:50:00,77.5,74.3,29.91,West,269,2.0,8.0,90,0.00,,---,0.00,VWS V14.01,2013-08-09 12:50:00,
2013-08-09 08:53:00,77.5,74.3,29.91,WSW,257,5.0,5.0,90,0.00,,---,0.00,VWS V14.01,2013-08-09 12:53:00,
2013-08-09 08:58:00,77.8,74.6,29.91,West,278,2.0,10.0,90,0.00,,---,0.00,VWS V14.01,2013-08-09 12:58:00,
2013-08-09 09:00:00,77.9,74.7,29.91,WSW,255,2.0,10.0,90,0.00,,---,0.00,VWS V14.01,2013-08-09 13:00:00,
2013-08-09 09:03:00,78.3,74.5,29.91,South,188,5.0,9.0,88,0.00,,---,0.00,VWS V14.01,2013-08-09 13:03:00,
2013-08-09 09:08:00,78.7,74.5,29.92,West,281,7.0,9.0,87,0.00,,---,0.00,VWS V14.01,2013-08-09 13:08:00,
2013-08-09 09:10:00,78.7,74.8,29.92,SW,235,7.0,9.0,88,0.00,,---,0.00,VWS V14.01,2013-08-09 13:10:00,
2013-08-09 09:13:00,78.9,75.1,29.92,SSW,210,4.0,12.0,88,0.00,,---,0.00,VWS V14.01,2013-08-09 13:13:00,
2013-08-09 09:18:00,79.2,74.7,29.91,West,280,6.0,12.0,86,0.00,,---,0.00,VWS V14.01,2013-08-09 13:18:00,
2013-08-09 09:20:00,79.2,75.0,29.91,West,267,2.0,12.0,87,0.00,,---,0.00,VWS V14.01,2013-08-09 13:20:00,
2013-08-09 09:23:00,79.5,75.3,29.91,West,281,8.0,8.0,87,0.00,,---,0.00,VWS V14.01,2013-08-09 13:23:00,
2013-08-09 09:28:00,79.8,74.9,29.91,WNW,288,2.0,9.0,85,0.00,,---,0.00,VWS V14.01,2013-08-09 13:28:00,
2013-08-09 09:30:00,79.9,75.3,29.91,WSW,242,7.0,9.0,86,0.00,,---,0.00,VWS V14.01,2013-08-09 13:30:00,
2013-08-09 09:33:00,80.3,75.4,29.91,WSW,255,4.0,9.0,85,0.00,,---,0.00,VWS V14.01,2013-08-09 13:33:00,
2013-08-09 09:38:00,80.6,75.0,29.91,SSW,195,3.0,11.0,83,0.00,,---,0.00,VWS V14.01,2013-08-09 13:38:00,
2013-08-09 09:40:00,80.6,75.3,29.91,West,271,6.0,11.0,84,0.00,,---,0.00,VWS V14.01,2013-08-09 13:40:00,
2013-08-09 09:43:00,80.8,74.8,29.91,WSW,255,8.0,12.0,82,0.00,,---,0.00,VWS V14.01,2013-08-09 13:43:00,
2013-08-09 09:48:00,81.2,75.6,29.91,West,273,5.0,12.0,83,0.00,,---,0.00,VWS V14.01,2013-08-09 13:48:00,
2013-08-09 09:50:00,81.2,75.6,29.91,WSW,255,6.0,12.0,83,0.00,,---,0.00,VWS V14.01,2013-08-09 13:50:00,
2013-08-09 09:53:00,81.6,75.9,29.91,WSW,253,5.0,8.0,83,0.00,,---,0.00,VWS V14.01,2013-08-09 13:53:00,
2013-08-09 09:58:00,81.7,75.3,29.91,SW,233,7.0,12.0,81,0.00,,---,0.00,VWS V14.01,2013-08-09 13:58:00,
2013-08-09 10:00:00,81.7,75.3,29.91,West,276,5.0,12.0,81,0.00,,---,0.00,VWS V14.01,2013-08-09 14:00:00,
2013-08-09 10:03:00,82.0,75.6,29.91,SSW,212,11.0,12.0,81,0.00,,---,0.00,VWS V14.01,2013-08-09 14:03:00,
2013-08-09 10:08:00,82.5,75.7,29.92,SSW,212,7.0,12.0,80,0.00,,---,0.00,VWS V14.01,2013-08-09 14:08:00,
2013-08-09 10:10:00,82.5,75.7,29.92,SSW,196,3.0,12.0,80,0.00,,---,0.00,VWS V14.01,2013-08-09 14:10:00,
2013-08-09 10:13:00,82.8,76.4,29.91,West,278,8.0,12.0,81,0.00,,---,0.00,VWS V14.01,2013-08-09 14:13:00,
2013-08-09 10:18:00,82.7,75.2,29.92,West,264,4.0,12.0,78,0.00,,---,0.00,VWS V14.01,2013-08-09 14:18:00,
2013-08-09 10:20:00,82.7,75.2,29.92,West,266,5.0,12.0,78,0.00,,---,0.00,VWS V14.01,2013-08-09 14:20:00,
2013-08-09 10:23:00,82.8,75.2,29.92,WNW,300,4.0,11.0,78,0.00,,---,0.00,VWS V14.01,2013-08-09 14:23:00,
2013-08-09 10:28:00,83.2,76.8,29.92,SW,229,8.0,11.0,81,0.00,,---,0.00,VWS V14.01,2013-08-09 14:28:00,
2013-08-09 10:30:00,83.3,76.1,29.92,SW,222,3.0,11.0,79,0.00,,---,0.00,VWS V14.01,2013-08-09 14:30:00,
2013-08-09 10:33:00,83.8,75.8,29.92,WNW,283,5.0,8.0,77,0.00,,---,0.00,VWS V14.01,2013-08-09 14:33:00,
2013-08-09 10:38:00,84.0,75.6,29.92,SSW,198,7.0,11.0,76,0.00,,---,0.00,VWS V14.01,2013-08-09 14:38:00,
2013-08-09 10:40:00,84.0,76.0,29.92,WSW,252,6.0,11.0,77,0.00,,---,0.00,VWS V14.01,2013-08-09 14:40:00,
2013-08-09 10:43:00,84.1,76.1,29.92,WSW,258,4.0,10.0,77,0.00,,---,0.00,VWS V14.01,2013-08-09 14:43:00,
2013-08-09 10:48:00,83.9,75.1,29.92,West,262,3.0,10.0,75,0.00,,---,0.00,VWS V14.01,2013-08-09 14:48:00,
2013-08-09 10:50:00,83.9,75.1,29.92,WSW,248,3.0,10.0,75,0.00,,---,0.00,VWS V14.01,2013-08-09 14:50:00,
2013-08-09 10:53:00,84.1,76.1,29.92,SW,221,10.0,10.0,77,0.00,,---,0.00,VWS V14.01,2013-08-09 14:53:00,
2013-08-09 10:58:00,84.2,75.8,29.92,West,270,5.0,14.0,76,0.00,,---,0.00,VWS V14.01,2013-08-09 14:58:00,
2013-08-09 11:00:00,84.2,75.8,29.92,South,172,9.0,14.0,76,0.00,,---,0.00,VWS V14.01,2013-08-09 15:00:00,
2013-08-09 11:03:00,84.4,76.4,29.92,West,281,2.0,11.0,77,0.00,,---,0.00,VWS V14.01,2013-08-09 15:03:00,
2013-08-09 11:08:00,84.6,75.4,29.92,West,263,4.0,13.0,74,0.00,,---,0.00,VWS V14.01,2013-08-09 15:08:00,
2013-08-09 11:10:00,84.6,75.4,29.92,West,262,7.0,13.0,74,0.00,,---,0.00,VWS V14.01,2013-08-09 15:10:00,
2013-08-09 11:13:00,84.6,76.2,29.91,SW,216,7.0,12.0,76,0.00,,---,0.00,VWS V14.01,2013-08-09 15:13:00,
2013-08-09 11:18:00,84.6,76.2,29.91,SW,221,4.0,12.0,76,0.00,,---,0.00,VWS V14.01,2013-08-09 15:18:00,
2013-08-09 11:19:00,84.6,76.2,29.91,WSW,250,5.0,12.0,76,0.00,,---,0.00,VWS V14.01,2013-08-09 15:19:00,
2013-08-09 11:20:00,84.6,76.2,29.91,WSW,250,5.0,12.0,76,0.00,,---,0.00,VWS V14.01,2013-08-09 15:20:00,
2013-08-09 11:24:00,84.5,76.1,29.92,SW,231,4.0,12.0,76,0.00,,---,0.00,VWS V14.01,2013-08-09 15:24:00,
2013-08-09 11:29:00,84.8,76.0,29.92,WSW,248,4.0,12.0,75,0.00,,---,0.00,VWS V14.01,2013-08-09 15:29:00,
2013-08-09 11:30:00,84.8,76.0,29.92,WSW,248,4.0,12.0,75,0.00,,---,0.00,VWS V14.01,2013-08-09 15:30:00,
2013-08-09 11:34:00,84.7,75.5,29.91,SW,233,8.0,11.0,74,0.00,,---,0.00,VWS V14.01,2013-08-09 15:34:00,
2013-08-09 11:39:00,84.4,76.0,29.91,West,262,3.0,11.0,76,0.00,,---,0.00,VWS V14.01,2013-08-09 15:39:00,
2013-08-09 11:40:00,84.4,76.0,29.91,West,262,3.0,11.0,76,0.00,,---,0.00,VWS V14.01,2013-08-09 15:40:00,
2013-08-09 11:44:00,84.4,76.4,29.91,SSW,212,6.0,9.0,77,0.00,,---,0.00,VWS V14.01,2013-08-09 15:44:00,
2013-08-09 11:49:00,84.6,76.6,29.91,SW,221,7.0,10.0,77,0.00,,---,0.00,VWS V14.01,2013-08-09 15:49:00,
2013-08-09 11:50:00,84.6,76.6,29.91,SW,221,7.0,10.0,77,0.00,,---,0.00,VWS V14.01,2013-08-09 15:50:00,
2013-08-09 11:54:00,84.6,75.8,29.91,WSW,246,0.0,10.0,75,0.00,,---,0.00,VWS V14.01,2013-08-09 15:54:00,
2013-08-09 11:59:00,84.7,75.9,29.91,SW,226,4.0,10.0,75,0.00,,---,0.00,VWS V14.01,2013-08-09 15:59:00,
2013-08-09 12:00:00,84.7,75.9,29.91,SW,226,4.0,10.0,75,0.00,,---,0.00,VWS V14.01,2013-08-09 16:00:00,
2013-08-09 12:04:00,84.6,76.2,29.91,SSW,205,4.0,11.0,76,0.00,,---,0.00,VWS V14.01,2013-08-09 16:04:00,
2013-08-09 12:09:00,85.0,76.6,29.91,SW,215,8.0,11.0,76,0.00,,---,0.00,VWS V14.01,2013-08-09 16:09:00,
2013-08-09 12:10:00,85.0,76.6,29.91,SW,215,8.0,11.0,76,0.00,,---,0.00,VWS V14.01,2013-08-09 16:10:00,
2013-08-09 12:14:00,85.6,76.8,29.91,WSW,248,2.0,10.0,75,0.00,,---,0.00,VWS V14.01,2013-08-09 16:14:00,
2013-08-09 12:19:00,85.9,76.7,29.91,West,277,5.0,10.0,74,0.00,,---,0.00,VWS V14.01,2013-08-09 16:19:00,
2013-08-09 12:20:00,85.9,76.7,29.91,West,277,5.0,10.0,74,0.00,,---,0.00,VWS V14.01,2013-08-09 16:20:00,
2013-08-09 12:24:00,85.5,76.7,29.91,SW,222,7.0,10.0,75,0.00,,---,0.00,VWS V14.01,2013-08-09 16:24:00,
2013-08-09 12:29:00,85.5,76.3,29.91,West,280,7.0,9.0,74,0.00,,---,0.00,VWS V14.01,2013-08-09 16:29:00,
2013-08-09 12:30:00,85.5,76.3,29.91,WNW,290,9.0,11.0,74,0.00,,---,0.00,VWS V14.01,2013-08-09 16:30:00,
2013-08-09 12:34:00,85.7,76.5,29.91,West,280,4.0,12.0,74,0.00,,---,0.00,VWS V14.01,2013-08-09 16:34:00,
2013-08-09 12:39:00,86.0,75.9,29.91,SSW,212,2.0,12.0,72,0.00,,---,0.00,VWS V14.01,2013-08-09 16:39:00,
2013-08-09 12:40:00,86.0,75.9,29.91,SSW,212,2.0,12.0,72,0.00,,---,0.00,VWS V14.01,2013-08-09 16:40:00,
2013-08-09 12:44:00,86.1,76.0,29.91,West,274,7.0,11.0,72,0.00,,---,0.00,VWS V14.01,2013-08-09 16:44:00,
2013-08-09 12:49:00,86.7,76.6,29.91,South,181,6.0,7.0,72,0.00,,---,0.00,VWS V14.01,2013-08-09 16:49:00,
2013-08-09 12:50:00,86.7,76.6,29.91,SW,218,7.0,12.0,72,0.00,,---,0.00,VWS V14.01,2013-08-09 16:50:00,
2013-08-09 12:54:00,87.4,76.8,29.91,SW,233,3.0,13.0,71,0.00,,---,0.00,VWS V14.01,2013-08-09 16:54:00,
2013-08-09 12:59:00,88.1,76.7,29.91,WNW,287,5.0,13.0,69,0.00,,---,0.00,VWS V14.01,2013-08-09 16:59:00,
2013-08-09 13:00:00,88.1,76.7,29.91,WNW,287,5.0,13.0,69,0.00,,---,0.00,VWS V14.01,2013-08-09 17:00:00,
2013-08-09 13:04:00,88.1,75.8,29.91,SW,219,12.0,15.0,67,0.00,,---,0.00,VWS V14.01,2013-08-09 17:04:00,
2013-08-09 13:09:00,88.0,76.1,29.90,WSW,248,5.0,5.0,68,0.00,,---,0.00,VWS V14.01,2013-08-09 17:09:00,
2013-08-09 13:10:00,88.0,76.1,29.90,SW,228,4.0,15.0,68,0.00,,---,0.00,VWS V14.01,2013-08-09 17:10:00,
2013-08-09 13:14:00,88.3,75.5,29.90,WNW,290,7.0,15.0,66,0.00,,---,0.00,VWS V14.01,2013-08-09 17:14:00,
2013-08-09 13:19:00,88.3,75.5,29.90,SW,219,5.0,8.0,66,0.00,,---,0.00,VWS V14.01,2013-08-09 17:19:00,
2013-08-09 13:20:00,88.3,75.5,29.90,SW,223,8.0,15.0,66,0.00,,---,0.00,VWS V14.01,2013-08-09 17:20:00,
2013-08-09 13:24:00,88.2,75.0,29.90,SW,236,6.0,15.0,65,0.00,,---,0.00,VWS V14.01,2013-08-09 17:24:00,
2013-08-09 13:29:00,88.3,76.4,29.90,WSW,238,5.0,6.0,68,0.00,,---,0.00,VWS V14.01,2013-08-09 17:29:00,
2013-08-09 13:30:00,88.2,76.3,29.90,SW,225,6.0,17.0,68,0.00,,---,0.00,VWS V14.01,2013-08-09 17:30:00,
2013-08-09 13:34:00,88.5,74.3,29.90,SW,236,8.0,17.0,63,0.00,,---,0.00,VWS V14.01,2013-08-09 17:34:00,
2013-08-09 13:39:00,88.4,76.1,29.90,SW,230,7.0,10.0,67,0.00,,---,0.00,VWS V14.01,2013-08-09 17:39:00,
2013-08-09 13:40:00,88.4,76.1,29.90,WSW,256,6.0,17.0,67,0.00,,---,0.00,VWS V14.01,2013-08-09 17:40:00,
2013-08-09 13:44:00,88.8,75.1,29.90,West,274,8.0,10.0,64,0.00,,---,0.00,VWS V14.01,2013-08-09 17:44:00,
2013-08-09 13:49:00,88.4,74.7,29.89,West,275,5.0,8.0,64,0.00,,---,0.00,VWS V14.01,2013-08-09 17:49:00,
2013-08-09 13:50:00,88.4,74.7,29.90,WSW,255,8.0,11.0,64,0.00,,---,0.00,VWS V14.01,2013-08-09 17:50:00,
2013-08-09 13:54:00,88.2,74.5,29.89,WSW,245,6.0,16.0,64,0.00,,---,0.00,VWS V14.01,2013-08-09 17:54:00,
2013-08-09 13:59:00,88.2,75.4,29.89,West,274,4.0,8.0,66,0.00,,---,0.00,VWS V14.01,2013-08-09 17:59:00,
2013-08-09 14:00:00,88.2,75.0,29.89,SW,215,8.0,16.0,65,0.00,,---,0.00,VWS V14.01,2013-08-09 18:00:00,
2013-08-09 14:04:00,87.9,76.0,29.89,West,266,6.0,10.0,68,0.00,,---,0.00,VWS V14.01,2013-08-09 18:04:00,
2013-08-09 14:09:00,88.3,76.4,29.89,WSW,243,5.0,12.0,68,0.00,,---,0.00,VWS V14.01,2013-08-09 18:09:00,
2013-08-09 14:10:00,88.2,75.9,29.89,SSW,203,10.0,11.0,67,0.00,,---,0.00,VWS V14.01,2013-08-09 18:10:00,
2013-08-09 14:14:00,88.7,75.9,29.89,West,269,2.0,12.0,66,0.00,,---,0.00,VWS V14.01,2013-08-09 18:14:00,
2013-08-09 14:19:00,88.7,77.7,29.88,West,276,8.0,8.0,70,0.00,,---,0.00,VWS V14.01,2013-08-09 18:19:00,
2013-08-09 14:20:00,88.6,77.6,29.89,West,273,3.0,12.0,70,0.00,,---,0.00,VWS V14.01,2013-08-09 18:20:00,
2013-08-09 14:24:00,88.6,76.7,29.88,WSW,253,5.0,12.0,68,0.00,,---,0.00,VWS V14.01,2013-08-09 18:24:00,
2013-08-09 14:29:00,88.8,75.5,29.88,WNW,298,11.0,11.0,65,0.00,,---,0.00,VWS V14.01,2013-08-09 18:29:00,
2013-08-09 14:30:00,88.8,75.5,29.89,SW,231,6.0,16.0,65,0.00,,---,0.00,VWS V14.01,2013-08-09 18:30:00,
2013-08-09 14:34:00,89.1,76.3,29.89,WSW,257,8.0,13.0,66,0.00,,---,0.00,VWS V14.01,2013-08-09 18:34:00,
2013-08-09 14:39:00,89.1,76.3,29.89,WSW,238,9.0,13.0,66,0.00,,---,0.00,VWS V14.01,2013-08-09 18:39:00,
2013-08-09 14:40:00,89.1,76.3,29.89,South,191,8.0,19.0,66,0.00,,---,0.00,VWS V14.01,2013-08-09 18:40:00,
2013-08-09 14:44:00,88.7,76.3,29.88,South,188,7.0,17.0,67,0.00,,---,0.00,VWS V14.01,2013-08-09 18:44:00,
2013-08-09 14:49:00,88.8,76.4,29.89,SSW,211,4.0,10.0,67,0.00,,---,0.00,VWS V14.01,2013-08-09 18:49:00,
2013-08-09 14:50:00,88.8,76.0,29.89,WSW,238,7.0,17.0,66,0.00,,---,0.00,VWS V14.01,2013-08-09 18:50:00,
2013-08-09 14:54:00,88.7,76.8,29.88,West,273,6.0,12.0,68,0.00,,---,0.00,VWS V14.01,2013-08-09 18:54:00,
2013-08-09 14:59:00,89.0,77.1,29.88,WSW,250,2.0,3.0,68,0.00,,---,0.00,VWS V14.01,2013-08-09 18:59:00,
2013-08-09 15:00:00,88.9,77.4,29.88,WSW,253,4.0,12.0,69,0.00,,---,0.00,VWS V14.01,2013-08-09 19:00:00,
2013-08-09 15:04:00,89.5,76.2,29.88,WSW,240,6.0,13.0,65,0.00,,---,0.00,VWS V14.01,2013-08-09 19:04:00,
2013-08-09 15:09:00,89.8,76.9,29.88,SW,229,4.0,5.0,66,0.00,,---,0.00,VWS V14.01,2013-08-09 19:09:00,
2013-08-09 15:10:00,89.8,76.5,29.88,West,266,3.0,13.0,65,0.00,,---,0.00,VWS V14.01,2013-08-09 19:10:00,
2013-08-09 15:14:00,90.2,76.4,29.88,West,266,10.0,11.0,64,0.00,,---,0.00,VWS V14.01,2013-08-09 19:14:00,
2013-08-09 15:19:00,90.2,76.4,29.87,WSW,238,4.0,5.0,64,0.00,,---,0.00,VWS V14.01,2013-08-09 19:19:00,
2013-08-09 15:20:00,90.1,76.3,29.87,SW,217,5.0,11.0,64,0.00,,---,0.00,VWS V14.01,2013-08-09 19:20:00,
2013-08-09 15:24:00,90.6,76.8,29.87,SSW,207,7.0,11.0,64,0.00,,---,0.00,VWS V14.01,2013-08-09 19:24:00,
2013-08-09 15:29:00,90.9,77.0,29.87,SSW,212,7.0,8.0,64,0.00,,---,0.00,VWS V14.01,2013-08-09 19:29:00,
2013-08-09 15:30:00,90.9,77.0,29.87,SW,227,8.0,16.0,64,0.00,,---,0.00,VWS V14.01,2013-08-09 19:30:00,
2013-08-09 15:34:00,90.6,75.3,29.87,SSW,210,10.0,16.0,61,0.00,,---,0.00,VWS V14.01,2013-08-09 19:34:00,
2013-08-09 15:40:00,90.5,74.7,29.87,SW,215,10.0,11.0,60,0.00,,---,0.00,VWS V14.01,2013-08-09 19:40:00,
2013-08-09 15:45:00,90.2,75.4,29.87,SW,217,4.0,11.0,62,0.00,,---,0.00,VWS V14.01,2013-08-09 19:45:00,
2013-08-09 15:50:00,90.3,76.0,29.86,WSW,252,5.0,8.0,63,0.00,,---,0.00,VWS V14.01,2013-08-09 19:50:00,
2013-08-09 15:55:00,90.8,74.5,29.86,WSW,252,5.0,10.0,59,0.00,,---,0.00,VWS V14.01,2013-08-09 19:55:00,
2013-08-09 16:00:00,90.8,74.0,29.86,SSE,167,5.0,11.0,58,0.00,,---,0.00,VWS V14.01,2013-08-09 20:00:00,
2013-08-09 16:05:00,90.9,73.6,29.86,West,274,5.0,11.0,57,0.00,,---,0.00,VWS V14.01,2013-08-09 20:05:00,
2013-08-09 16:10:00,90.4,74.1,29.86,WNW,287,9.0,10.0,59,0.00,,---,0.00,VWS V14.01,2013-08-09 20:10:00,
2013-08-09 16:15:00,90.8,74.0,29.86,SW,221,9.0,11.0,58,0.00,,---,0.00,VWS V14.01,2013-08-09 20:15:00,
2013-08-09 16:20:00,90.6,73.8,29.85,SW,217,6.0,12.0,58,0.00,,---,0.00,VWS V14.01,2013-08-09 20:20:00,
2013-08-09 16:25:00,90.9,74.1,29.85,WSW,250,4.0,14.0,58,0.00,,---,0.00,VWS V14.01,2013-08-09 20:25:00,
2013-08-09 16:30:00,91.4,74.0,29.85,West,271,6.0,11.0,57,0.00,,---,0.00,VWS V14.01,2013-08-09 20:30:00,
2013-08-09 16:35:00,91.5,74.1,29.85,WSW,253,10.0,13.0,57,0.00,,---,0.00,VWS V14.01,2013-08-09 20:35:00,
2013-08-09 16:40:00,91.5,73.6,29.85,WSW,246,5.0,12.0,56,0.00,,---,0.00,VWS V14.01,2013-08-09 20:40:00,
2013-08-09 16:45:00,91.3,74.5,29.86,West,273,4.0,12.0,58,0.00,,---,0.00,VWS V14.01,2013-08-09 20:45:00,
2013-08-09 16:50:00,91.2,72.8,29.86,West,277,5.0,8.0,55,0.00,,---,0.00,VWS V14.01,2013-08-09 20:50:00,
2013-08-09 16:55:00,90.5,73.7,29.86,WSW,255,2.0,8.0,58,0.00,,---,0.00,VWS V14.01,2013-08-09 20:55:00,
2013-08-09 17:00:00,89.9,73.2,29.86,SW,222,2.0,6.0,58,0.00,,---,0.00,VWS V14.01,2013-08-09 21:00:00,
2013-08-09 17:05:00,89.6,73.9,29.86,WSW,253,7.0,9.0,60,0.00,,---,0.00,VWS V14.01,2013-08-09 21:05:00,
2013-08-09 17:10:00,89.3,74.1,29.86,WSW,253,4.0,8.0,61,0.00,,---,0.00,VWS V14.01,2013-08-09 21:10:00,
2013-08-09 17:15:00,89.0,74.8,29.86,SW,222,4.0,8.0,63,0.00,,---,0.00,VWS V14.01,2013-08-09 21:15:00,
2013-08-09 17:20:00,88.7,74.5,29.86,West,276,3.0,4.0,63,0.00,,---,0.00,VWS V14.01,2013-08-09 21:20:00,
2013-08-09 17:25:00,88.3,74.1,29.86,West,265,2.0,6.0,63,0.00,,---,0.00,VWS V14.01,2013-08-09 21:25:00,
2013-08-09 17:30:00,88.1,74.4,29.86,SW,217,2.0,5.0,64,0.00,,---,0.00,VWS V14.01,2013-08-09 21:30:00,
2013-08-09 17:35:00,87.9,74.7,29.86,WSW,253,4.0,6.0,65,0.00,,---,0.00,VWS V14.01,2013-08-09 21:35:00,
2013-08-09 17:40:00,88.2,75.0,29.86,West,267,3.0,5.0,65,0.00,,---,0.00,VWS V14.01,2013-08-09 21:40:00,
2013-08-09 17:45:00,88.2,75.4,29.85,WSW,250,1.0,5.0,66,0.00,,---,0.00,VWS V14.01,2013-08-09 21:45:00,
2013-08-09 17:50:00,88.1,74.9,29.86,West,267,4.0,8.0,65,0.00,,---,0.00,VWS V14.01,2013-08-09 21:50:00,
2013-08-09 17:55:00,88.1,75.3,29.85,WSW,255,1.0,8.0,66,0.00,,---,0.00,VWS V14.01,2013-08-09 21:55:00,
2013-08-09 18:00:00,88.2,75.0,29.85,SW,233,2.0,8.0,65,0.00,,---,0.00,VWS V14.01,2013-08-09 22:00:00,
2013-08-09 18:05:00,88.3,74.1,29.86,SW,233,7.0,8.0,63,0.00,,---,0.00,VWS V14.01,2013-08-09 22:05:00,
2013-08-09 18:10:00,88.3,74.1,29.85,West,269,5.0,5.0,63,0.00,,---,0.00,VWS V14.01,2013-08-09 22:10:00,
2013-08-09 18:15:00,88.5,73.8,29.85,WSW,238,6.0,9.0,62,0.00,,---,0.00,VWS V14.01,2013-08-09 22:15:00,
2013-08-09 18:20:00,88.8,74.1,29.85,SW,225,3.0,7.0,62,0.00,,---,0.00,VWS V14.01,2013-08-09 22:20:00,
2013-08-09 18:25:00,88.4,73.7,29.85,SW,224,7.0,10.0,62,0.00,,---,0.00,VWS V14.01,2013-08-09 22:25:00,
2013-08-09 18:30:00,87.8,74.1,29.86,WSW,252,1.0,4.0,64,0.00,,---,0.00,VWS V14.01,2013-08-09 22:30:00,
2013-08-09 18:35:00,87.4,73.7,29.86,WSW,240,3.0,6.0,64,0.00,,---,0.00,VWS V14.01,2013-08-09 22:35:00,
2013-08-09 18:40:00,87.1,73.9,29.86,WSW,245,2.0,4.0,65,0.00,,---,0.00,VWS V14.01,2013-08-09 22:40:00,
2013-08-09 18:45:00,86.8,74.1,29.87,SW,232,2.0,4.0,66,0.00,,---,0.00,VWS V14.01,2013-08-09 22:45:00,
2013-08-09 18:50:00,86.6,74.3,29.87,SSW,195,1.0,3.0,67,0.00,,---,0.00,VWS V14.01,2013-08-09 22:50:00,
2013-08-09 18:55:00,86.6,74.3,29.87,SSW,211,2.0,4.0,67,0.00,,---,0.00,VWS V14.01,2013-08-09 22:55:00,
2013-08-09 19:00:00,86.7,74.4,29.87,SSW,205,2.0,2.0,67,0.00,,---,0.00,VWS V14.01,2013-08-09 23:00:00,
2013-08-09 19:05:00,86.4,74.6,29.87,SSW,201,1.0,4.0,68,0.00,,---,0.00,VWS V14.01,2013-08-09 23:05:00,
2013-08-09 19:10:00,86.1,75.2,29.87,SSW,205,2.0,4.0,70,0.00,,---,0.00,VWS V14.01,2013-08-09 23:10:00,
2013-08-09 19:15:00,85.8,74.9,29.87,WSW,250,3.0,4.0,70,0.00,,---,0.00,VWS V14.01,2013-08-09 23:15:00,
2013-08-09 19:20:00,85.8,75.3,29.87,WSW,253,0.0,2.0,71,0.00,,---,0.00,VWS V14.01,2013-08-09 23:20:00,
2013-08-09 19:25:00,86.1,75.6,29.87,WSW,244,0.0,3.0,71,0.00,,---,0.00,VWS V14.01,2013-08-09 23:25:00,
2013-08-09 19:30:00,86.2,75.7,29.87,WSW,257,0.0,2.0,71,0.00,,---,0.00,VWS V14.01,2013-08-09 23:30:00,
2013-08-09 19:35:00,86.1,75.6,29.87,West,260,1.0,4.0,71,0.00,,---,0.00,VWS V14.01,2013-08-09 23:35:00,
2013-08-09 19:40:00,85.8,75.7,29.88,SW,235,2.0,2.0,72,0.00,,---,0.00,VWS V14.01,2013-08-09 23:40:00,
2013-08-09 19:45:00,85.5,75.4,29.87,WSW,253,0.0,4.0,72,0.00,,---,0.00,VWS V14.01,2013-08-09 23:45:00,
2013-08-09 19:50:00,85.3,75.7,29.87,WSW,250,2.0,3.0,73,0.00,,---,0.00,VWS V14.01,2013-08-09 23:50:00,
2013-08-09 19:55:00,85.0,75.4,29.87,SW,224,4.0,6.0,73,0.00,,---,0.00,VWS V14.01,2013-08-09 23:55:00,
2013-08-09 20:00:00,84.8,75.2,29.88,WNW,286,6.0,6.0,73,0.00,,---,0.00,VWS V14.01,2013-08-10 00:00:00,
2013-08-09 20:05:00,84.6,75.0,29.88,SW,228,2.0,8.0,73,0.00,,---,0.00,VWS V14.01,2013-08-10 00:05:00,
2013-08-09 20:10:00,84.3,75.1,29.88,SW,236,1.0,5.0,74,0.00,,---,0.00,VWS V14.01,2013-08-10 00:10:00,
2013-08-09 20:15:00,84.0,74.8,29.88,SSW,200,2.0,5.0,74,0.00,,---,0.00,VWS V14.01,2013-08-10 00:15:00,
2013-08-09 20:20:00,83.7,74.5,29.88,WNW,283,1.0,3.0,74,0.00,,---,0.00,VWS V14.01,2013-08-10 00:20:00,
2013-08-09 20:25:00,83.4,74.7,29.88,SSW,210,1.0,3.0,75,0.00,,---,0.00,VWS V14.01,2013-08-10 00:25:00,
2013-08-09 20:30:00,83.2,74.5,29.89,West,263,3.0,4.0,75,0.00,,---,0.00,VWS V14.01,2013-08-10 00:30:00,
2013-08-09 20:35:00,83.1,74.8,29.89,WSW,250,4.0,6.0,76,0.00,,---,0.00,VWS V14.01,2013-08-10 00:35:00,
2013-08-09 20:40:00,83.0,74.7,29.90,WSW,256,1.0,3.0,76,0.00,,---,0.00,VWS V14.01,2013-08-10 00:40:00,
2013-08-09 20:46:00,82.7,74.4,29.90,West,259,4.0,5.0,76,0.00,,---,0.00,VWS V14.01,2013-08-10 00:46:00,
2013-08-09 20:50:00,82.6,74.7,29.90,West,274,1.0,5.0,77,0.00,,---,0.00,VWS V14.01,2013-08-10 00:50:00,
2013-08-09 20:51:00,82.5,74.6,29.90,West,266,1.0,3.0,77,0.00,,---,0.00,VWS V14.01,2013-08-10 00:51:00,
2013-08-09 20:56:00,82.4,74.5,29.90,West,275,1.0,3.0,77,0.00,,---,0.00,VWS V14.01,2013-08-10 00:56:00,
2013-08-09 21:00:00,82.3,74.4,29.90,WSW,250,1.0,3.0,77,0.00,,---,0.00,VWS V14.01,2013-08-10 01:00:00,
2013-08-09 21:01:00,82.2,74.3,29.90,SSW,207,3.0,5.0,77,0.00,,---,0.00,VWS V14.01,2013-08-10 01:01:00,
2013-08-09 21:06:00,82.0,74.1,29.91,WSW,251,0.0,5.0,77,0.00,,---,0.00,VWS V14.01,2013-08-10 01:06:00,
2013-08-09 21:10:00,81.9,74.0,29.91,SW,229,0.0,5.0,77,0.00,,---,0.00,VWS V14.01,2013-08-10 01:10:00,
2013-08-09 21:11:00,81.9,74.0,29.91,WSW,242,0.0,2.0,77,0.00,,---,0.00,VWS V14.01,2013-08-10 01:11:00,
2013-08-09 21:16:00,81.7,73.8,29.91,WSW,246,3.0,4.0,77,0.00,,---,0.00,VWS V14.01,2013-08-10 01:16:00,
2013-08-09 21:20:00,81.6,73.3,29.91,West,264,2.0,4.0,76,0.00,,---,0.00,VWS V14.01,2013-08-10 01:20:00,
2013-08-09 21:21:00,81.6,73.3,29.91,WSW,240,0.0,2.0,76,0.00,,---,0.00,VWS V14.01,2013-08-10 01:21:00,
2013-08-09 21:26:00,81.5,73.6,29.91,WSW,255,0.0,2.0,77,0.00,,---,0.00,VWS V14.01,2013-08-10 01:26:00,
2013-08-09 21:30:00,81.3,73.4,29.91,West,269,1.0,2.0,77,0.00,,---,0.00,VWS V14.01,2013-08-10 01:30:00,
2013-08-09 21:31:00,81.2,73.3,29.91,WSW,238,0.0,2.0,77,0.00,,---,0.00,VWS V14.01,2013-08-10 01:31:00,
2013-08-09 21:36:00,81.1,73.2,29.91,WSW,257,0.0,2.0,77,0.00,,---,0.00,VWS V14.01,2013-08-10 01:36:00,
2013-08-09 21:40:00,81.0,73.1,29.91,West,259,0.0,2.0,77,0.00,,---,0.00,VWS V14.01,2013-08-10 01:40:00,
2013-08-09 21:41:00,81.0,73.1,29.91,SW,224,0.0,1.0,77,0.00,,---,0.00,VWS V14.01,2013-08-10 01:41:00,
2013-08-09 21:46:00,80.8,72.9,29.91,SW,224,0.0,1.0,77,0.00,,---,0.00,VWS V14.01,2013-08-10 01:46:00,
2013-08-09 21:50:00,80.7,72.8,29.91,SW,224,0.0,1.0,77,0.00,,---,0.00,VWS V14.01,2013-08-10 01:50:00,
2013-08-09 21:51:00,80.6,72.7,29.91,SW,224,0.0,0.0,77,0.00,,---,0.00,VWS V14.01,2013-08-10 01:51:00,
2013-08-09 21:56:00,80.1,73.8,29.91,SW,224,0.0,0.0,81,0.00,,---,0.00,VWS V14.01,2013-08-10 01:56:00,
2013-08-09 22:00:00,79.6,73.3,29.92,SW,224,0.0,0.0,81,0.00,,---,0.00,VWS V14.01,2013-08-10 02:00:00,
2013-08-09 22:01:00,79.4,73.4,29.92,SW,224,0.0,0.0,82,0.00,,---,0.00,VWS V14.01,2013-08-10 02:01:00,
2013-08-09 22:06:00,78.7,73.1,29.92,SW,224,0.0,0.0,83,0.00,,---,0.00,VWS V14.01,2013-08-10 02:06:00,
2013-08-09 22:10:00,78.4,72.8,29.92,SW,228,0.0,1.0,83,0.00,,---,0.00,VWS V14.01,2013-08-10 02:10:00,
2013-08-09 22:11:00,78.3,72.7,29.92,SW,228,0.0,0.0,83,0.00,,---,0.00,VWS V14.01,2013-08-10 02:11:00,
2013-08-09 22:16:00,78.2,72.6,29.92,West,274,0.0,0.0,83,0.00,,---,0.00,VWS V14.01,2013-08-10 02:16:00,
2013-08-09 22:20:00,78.0,72.4,29.92,West,274,0.0,0.0,83,0.00,,---,0.00,VWS V14.01,2013-08-10 02:20:00,
2013-08-09 22:21:00,77.9,72.3,29.93,West,274,0.0,0.0,83,0.00,,---,0.00,VWS V14.01,2013-08-10 02:21:00,
2013-08-09 22:26:00,77.6,72.7,29.93,West,274,0.0,0.0,85,0.00,,---,0.00,VWS V14.01,2013-08-10 02:26:00,
2013-08-09 22:30:00,77.6,72.4,29.93,West,274,0.0,0.0,84,0.00,,---,0.00,VWS V14.01,2013-08-10 02:30:00,
2013-08-09 22:31:00,77.6,72.7,29.93,West,274,0.0,0.0,85,0.00,,---,0.00,VWS V14.01,2013-08-10 02:31:00,
2013-08-09 22:36:00,77.6,72.7,29.93,West,275,0.0,0.0,85,0.00,,---,0.00,VWS V14.01,2013-08-10 02:36:00,
2013-08-09 22:40:00,77.5,72.6,29.93,WNW,290,0.0,1.0,85,0.00,,---,0.00,VWS V14.01,2013-08-10 02:40:00,
2013-08-09 22:41:00,77.4,72.5,29.93,WNW,290,0.0,0.0,85,0.00,,---,0.00,VWS V14.01,2013-08-10 02:41:00,
2013-08-09 22:46:00,77.1,72.2,29.93,NW,325,0.0,0.0,85,0.00,,---,0.00,VWS V14.01,2013-08-10 02:46:00,
2013-08-09 22:50:00,76.9,72.4,29.94,NW,325,0.0,0.0,86,0.00,,---,0.00,VWS V14.01,2013-08-10 02:50:00,
2013-08-09 22:51:00,76.8,72.3,29.94,NW,325,0.0,0.0,86,0.00,,---,0.00,VWS V14.01,2013-08-10 02:51:00,
2013-08-09 22:56:00,76.5,72.0,29.94,NW,325,0.0,0.0,86,0.00,,---,0.00,VWS V14.01,2013-08-10 02:56:00,
2013-08-09 23:00:00,76.4,71.9,29.94,NW,324,0.0,0.0,86,0.00,,---,0.00,VWS V14.01,2013-08-10 03:00:00,
2013-08-09 23:01:00,76.4,71.9,29.94,NW,324,0.0,0.0,86,0.00,,---,0.00,VWS V14.01,2013-08-10 03:01:00,
2013-08-09 23:06:00,76.1,71.9,29.94,NW,323,0.0,0.0,87,0.00,,---,0.00,VWS V14.01,2013-08-10 03:06:00,
2013-08-09 23:10:00,75.9,72.1,29.94,NW,323,0.0,0.0,88,0.00,,---,0.00,VWS V14.01,2013-08-10 03:10:00,
2013-08-09 23:11:00,75.8,72.0,29.94,NW,323,0.0,0.0,88,0.00,,---,0.00,VWS V14.01,2013-08-10 03:11:00,
2013-08-09 23:16:00,75.5,71.7,29.94,NW,323,0.0,0.0,88,0.00,,---,0.00,VWS V14.01,2013-08-10 03:16:00,
2013-08-09 23:20:00,75.4,71.9,29.94,NW,323,0.0,0.0,89,0.00,,---,0.00,VWS V14.01,2013-08-10 03:20:00,
2013-08-09 23:21:00,75.4,71.9,29.94,NW,323,0.0,0.0,89,0.00,,---,0.00,VWS V14.01,2013-08-10 03:21:00,
2013-08-09 23:26:00,75.8,72.7,29.94,West,271,0.0,1.0,90,0.00,,---,0.00,VWS V14.01,2013-08-10 03:26:00,
2013-08-09 23:30:00,76.1,72.3,29.94,West,273,0.0,1.0,88,0.00,,---,0.00,VWS V14.01,2013-08-10 03:30:00,
2013-08-09 23:31:00,76.3,72.5,29.94,West,272,0.0,0.0,88,0.00,,---,0.00,VWS V14.01,2013-08-10 03:31:00,
2013-08-09 23:36:00,76.7,72.9,29.94,West,278,0.0,1.0,88,0.00,,---,0.00,VWS V14.01,2013-08-10 03:36:00,
2013-08-09 23:40:00,76.9,72.7,29.94,West,263,0.0,1.0,87,0.00,,---,0.00,VWS V14.01,2013-08-10 03:40:00,
2013-08-09 23:41:00,77.1,72.9,29.94,West,276,0.0,1.0,87,0.00,,---,0.00,VWS V14.01,2013-08-10 03:41:00,
2013-08-09 23:46:00,77.3,73.1,29.94,West,271,0.0,1.0,87,0.00,,---,0.00,VWS V14.01,2013-08-10 03:46:00,
2013-08-09 23:50:00,77.4,73.2,29.94,West,259,0.0,1.0,87,0.00,,---,0.00,VWS V14.01,2013-08-10 03:50:00,
2013-08-09 23:51:00,77.5,73.0,29.94,West,259,0.0,0.0,86,0.00,,---,0.00,VWS V14.01,2013-08-10 03:51:00,
2013-08-09 23:56:00,77.4,73.2,29.94,West,259,0.0,1.0,87,0.00,,---,0.00,VWS V14.01,2013-08-10 03:56:00,